Date,TemperatureHighF,TemperatureAvgF,TemperatureLowF,DewpointHighF,DewpointAvgF,DewpointLowF,HumidityHigh,HumidityAvg,HumidityLow,PressureMaxIn,PressureMinIn,WindSpeedMaxMPH,WindSpeedAvgMPH,GustSpeedMaxMPH,PrecipitationSumIn
2013-1-2,24.0,19.3,12.0,21.0,15.8,9.0,90,86,82,0.00,40.00,14,7,19,0.00
2013-1-3,20.0,12.3,1.0,14.0,6.7,-4.0,85,78,64,0.00,40.00,14,8,23,0.00
2013-1-4,30.0,19.4,5.0,18.0,12.3,1.0,89,74,60,0.00,40.00,10,4,13,0.00
2013-1-5,26.0,12.5,1.0,19.0,8.1,-4.0,86,81,74,0.00,40.00,14,5,17,0.00
2013-1-6,21.0,10.8,-3.0,10.0,4.1,-8.0,84,74,58,0.00,40.00,18,6,22,0.00
2013-1-7,39.0,24.8,9.0,25.0,17.5,5.0,88,74,53,0.00,40.00,16,8,29,0.00
2013-1-8,32.0,20.5,4.0,27.0,16.6,0.0,91,84,72,0.00,40.00,12,7,21,0.00
2013-1-9,33.0,25.6,18.0,25.0,18.4,12.0,82,73,63,0.00,40.00,21,11,36,0.00
2013-1-10,46.0,34.2,20.0,32.0,23.3,14.0,95,66,42,0.00,40.00,27,16,35,0.00
2013-1-11,33.0,32.9,27.0,32.0,31.9,25.0,98,97,95,0.00,40.00,17,5,22,0.00
2013-1-12,27.0,8.6,-3.0,27.0,2.2,-9.0,95,75,62,0.00,40.00,17,11,24,0.01
2013-1-13,9.0,0.8,-5.0,0.0,-6.1,-11.0,77,72,61,0.00,40.00,12,5,17,0.01
2013-1-14,15.0,6.1,0.0,3.0,-2.2,-8.0,76,68,54,0.00,40.00,10,6,16,0.00
2013-1-15,25.0,14.2,2.0,14.0,4.7,-2.0,81,66,44,0.00,40.00,16,10,23,0.00
2013-1-16,28.0,13.5,-3.0,25.0,4.0,-13.0,91,66,41,0.00,40.00,21,12,31,0.00
2013-1-17,9.0,2.0,-4.0,-2.0,-7.6,-13.0,73,63,50,0.00,40.00,11,4,17,0.00
2013-1-18,21.0,14.1,5.0,18.0,9.2,-4.0,86,80,67,0.00,40.00,11,4,15,0.00
2013-1-19,27.0,12.1,-7.0,23.0,6.0,-15.0,92,76,60,0.00,40.00,24,12,34,0.00
2013-1-20,0.0,-8.2,-14.0,-11.0,-16.8,-26.0,72,65,53,0.00,40.00,16,7,22,0.00
2013-1-21,-9.0,-15.2,-21.0,-22.0,-25.6,-29.0,66,59,47,0.00,40.00,14,8,21,0.00
2013-1-22,2.0,-10.8,-23.0,-11.0,-20.9,-31.0,69,60,46,0.00,40.00,7,4,10,0.00
2013-1-23,3.0,-4.9,-17.0,-2.0,-13.9,-26.0,77,65,49,0.00,40.00,24,11,32,0.00
2013-1-24,4.0,-7.4,-19.0,-4.0,-17.2,-27.0,71,62,50,0.00,40.00,18,9,23,0.00
2013-1-25,10.0,4.2,-9.0,5.0,-3.2,-17.0,80,71,59,0.00,40.00,19,9,26,0.00
2013-1-26,13.0,3.2,-13.0,3.0,-4.9,-20.0,74,68,59,0.00,40.00,17,8,21,0.00
2013-1-27,30.0,19.6,7.0,23.0,11.2,1.0,79,70,58,0.00,40.00,9,5,12,0.00
2013-1-28,33.0,30.2,27.0,30.0,27.4,21.0,97,90,73,0.00,40.00,9,4,12,0.06
2013-1-29,31.0,24.6,15.0,30.0,21.6,9.0,97,89,79,0.00,40.00,17,7,24,0.10
2013-1-30,14.0,7.0,1.0,9.0,0.7,-6.0,79,75,69,0.00,40.00,19,11,23,0.01
2013-1-31,1.0,-9.0,-19.0,-6.0,-19.0,-29.0,75,61,58,0.00,40.00,18,11,28,0.00
2013-2-1,-3.0,-14.8,-35.0,-9.0,-24.3,-45.0,73,61,47,0.00,40.00,9,4,12,0.00
2013-2-2,8.0,-3.0,-21.0,1.0,-10.2,-29.0,76,70,55,0.00,40.00,10,4,16,0.00
2013-2-3,8.0,1.1,-12.0,-2.0,-7.8,-20.0,74,66,50,0.00,40.00,14,5,18,0.00
2013-2-4,12.0,-3.0,-25.0,7.0,-11.1,-33.0,84,68,47,0.00,40.00,16,7,21,0.00
2013-2-5,17.0,10.5,0.0,14.0,3.5,-8.0,90,73,54,0.00,40.00,19,7,22,0.00
2013-2-6,19.0,12.4,-1.0,16.0,8.2,-6.0,90,82,72,0.00,40.00,9,4,12,0.02
2013-2-7,21.0,13.3,-10.0,16.0,8.7,-17.0,88,83,73,0.00,40.00,11,5,12,0.01
2013-2-8,26.0,8.7,-11.0,19.0,2.1,-18.0,88,74,66,0.00,40.00,17,7,22,0.00
2013-2-9,28.0,24.2,17.0,25.0,21.2,10.0,95,89,74,0.00,40.00,16,10,21,0.00
2013-2-10,27.0,26.0,24.0,27.0,24.7,21.0,95,94,90,0.00,40.00,24,12,29,0.22
2013-2-11,24.0,18.3,6.0,21.0,14.2,1.0,94,83,75,0.00,40.00,23,13,28,0.06
2013-2-12,36.0,23.1,6.0,23.0,16.2,1.0,88,76,57,0.00,40.00,10,6,15,0.01
2013-2-13,31.0,22.6,8.0,25.0,18.5,5.0,91,84,74,0.00,40.00,7,3,9,0.00
2013-2-14,26.0,13.7,6.0,23.0,5.2,-2.0,90,70,39,0.00,40.00,18,10,22,0.00
2013-2-15,13.0,6.0,-3.0,1.0,-1.9,-8.0,81,70,54,0.00,40.00,14,7,19,0.00
2013-2-16,19.0,8.3,-1.0,3.0,-0.5,-8.0,80,68,44,0.00,40.00,11,4,12,0.00
2013-2-17,28.0,20.3,9.0,21.0,13.8,1.0,82,76,71,0.00,40.00,25,16,32,0.00
2013-2-18,27.0,17.3,2.0,23.0,11.6,-6.0,91,78,65,0.00,40.00,27,14,37,0.01
2013-2-19,3.0,-2.2,-8.0,-6.0,-11.5,-18.0,72,64,53,0.00,40.00,30,18,38,0.01
2013-2-20,11.0,-2.2,-18.0,-2.0,-14.5,-26.0,71,56,40,0.00,40.00,12,4,14,0.00
2013-2-21,22.0,7.0,-13.0,10.0,-5.5,-22.0,78,56,39,0.00,40.00,10,4,13,0.00
2013-2-22,24.0,18.8,14.0,23.0,16.3,10.0,93,90,78,0.00,40.00,10,6,12,0.00
2013-2-23,27.0,18.5,8.0,23.0,15.2,3.0,91,87,79,0.00,40.00,4,2,7,0.00
2013-2-24,33.0,18.7,7.0,25.0,12.9,3.0,90,78,61,0.00,40.00,9,3,11,0.00
2013-2-25,37.0,20.2,6.0,25.0,14.2,3.0,90,78,54,0.00,40.00,8,5,10,0.00
2013-2-26,35.0,17.7,2.0,23.0,11.3,-4.0,89,76,54,0.00,40.00,9,3,10,0.00
2013-2-27,38.0,27.7,17.0,23.0,17.1,9.0,80,65,49,0.00,40.00,21,12,26,0.00
2013-2-28,28.0,23.4,18.0,19.0,15.2,9.0,81,71,57,0.00,40.00,19,10,24,0.00
2013-3-1,31.0,18.6,3.0,12.0,6.6,-4.0,74,60,34,0.00,40.00,8,3,11,0.00
2013-3-2,30.0,14.0,-8.0,14.0,3.1,-13.0,79,63,38,0.00,40.00,9,4,11,0.00
2013-3-3,33.0,25.1,13.0,14.0,9.0,3.0,70,51,33,0.00,40.00,16,9,22,0.00
2013-3-4,27.0,24.3,22.0,21.0,14.7,9.0,91,68,46,0.00,40.00,24,11,32,0.01
2013-3-5,25.0,21.9,18.0,21.0,19.0,14.0,92,89,84,0.00,40.00,14,10,15,0.07
2013-3-6,26.0,16.7,-1.0,14.0,9.3,-6.0,86,74,54,0.00,40.00,13,5,16,0.01
2013-3-7,31.0,12.7,-10.0,18.0,4.0,-17.0,86,68,52,0.00,40.00,14,6,21,0.00
2013-3-8,35.0,27.0,13.0,27.0,19.8,5.0,85,74,64,0.00,40.00,12,5,15,0.00
2013-3-9,35.0,30.8,24.0,34.0,29.5,21.0,98,95,85,0.00,40.00,16,6,21,0.06
2013-3-10,29.0,23.4,13.0,28.0,16.8,5.0,97,76,61,0.00,40.00,20,13,24,0.02
2013-3-11,26.0,15.7,4.0,16.0,8.4,0.0,85,73,58,0.00,40.00,11,5,12,0.00
2013-3-12,24.0,17.9,9.0,12.0,8.3,3.0,83,66,45,0.00,40.00,22,11,28,0.00
2013-3-13,29.0,15.8,2.0,16.0,8.0,-4.0,86,72,50,0.00,40.00,11,4,14,0.00
2013-3-14,44.0,29.8,16.0,28.0,22.2,14.0,90,74,50,0.00,40.00,12,6,14,0.00
2013-3-15,29.0,21.4,11.0,23.0,15.1,7.0,90,77,53,0.00,40.00,18,12,20,0.15
2013-3-16,14.0,5.8,-3.0,7.0,-2.4,-11.0,84,69,51,0.00,40.00,16,8,24,0.11
2013-3-17,20.0,3.0,-24.0,14.0,-8.3,-33.0,84,60,41,0.00,40.00,22,9,29,0.00
2013-3-18,27.0,19.4,8.0,25.0,15.7,1.0,93,85,72,0.00,40.00,23,14,34,0.03
2013-3-19,16.0,7.9,1.0,1.0,-3.5,-8.0,77,60,42,0.00,40.00,20,13,31,0.01
2013-3-20,19.0,8.9,0.0,3.0,-4.3,-9.0,70,54,44,0.00,40.00,21,12,29,0.00
2013-3-21,26.0,7.6,-14.0,10.0,-2.9,-22.0,76,62,43,0.00,40.00,9,3,11,0.00
2013-3-22,36.0,13.6,-13.0,16.0,2.7,-20.0,81,63,37,0.00,40.00,7,2,9,0.00
2013-3-23,36.0,24.4,10.0,21.0,15.6,5.0,87,71,45,0.00,40.00,10,4,12,0.00
2013-3-24,34.0,27.4,23.0,21.0,17.8,16.0,78,67,49,0.00,40.00,17,9,21,0.00
2013-3-25,33.0,26.1,19.0,19.0,14.6,10.0,74,61,44,0.00,40.00,20,11,22,0.00
2013-3-26,40.0,24.2,7.0,21.0,13.2,3.0,86,65,34,0.00,40.00,6,2,12,0.00
2013-3-27,43.0,27.9,13.0,19.0,14.4,9.0,85,60,29,0.00,40.00,7,2,7,0.00
2013-3-28,45.0,30.0,11.0,25.0,17.2,9.0,87,62,32,0.00,40.00,9,4,11,0.00
2013-3-29,50.0,38.4,30.0,30.0,26.8,21.0,80,64,43,0.00,40.00,9,5,11,0.00
2013-3-30,50.0,39.8,33.0,36.0,30.2,-99.9,97,72,43,0.00,40.00,15,6,24,0.00
2013-3-31,33.0,26.8,17.0,28.0,15.7,7.0,91,63,44,0.00,40.00,29,14,35,0.00
2013-4-1,29.0,19.4,10.0,10.0,6.7,3.0,77,59,35,0.00,40.00,17,9,24,0.00
2013-4-2,33.0,23.4,13.0,14.0,9.9,7.0,84,59,33,0.00,40.00,13,6,19,0.00
2013-4-3,41.0,28.4,11.0,32.0,17.4,7.0,84,64,42,0.00,40.00,25,11,35,0.00
2013-4-4,38.0,32.0,24.0,32.0,22.0,14.0,90,67,44,0.00,40.00,18,10,27,0.00
2013-4-5,36.0,27.2,13.0,27.0,16.8,9.0,86,66,44,0.00,40.00,17,7,21,0.00
2013-4-6,35.0,33.0,31.0,34.0,29.6,27.0,93,87,82,0.00,40.00,16,8,21,0.04
2013-4-7,41.0,34.6,32.0,32.0,28.4,25.0,96,78,61,0.00,40.00,12,4,14,0.03
2013-4-8,36.0,33.5,26.0,32.0,29.6,16.0,98,87,65,0.00,40.00,17,8,22,0.03
2013-4-9,35.0,24.4,15.0,21.0,14.2,7.0,72,65,51,0.00,40.00,18,12,21,0.00
2013-4-10,40.0,30.9,19.0,25.0,16.7,10.0,72,56,32,0.00,40.00,14,8,18,0.00
2013-4-11,37.0,29.1,26.0,25.0,19.2,14.0,92,67,42,0.00,40.00,21,12,30,0.01
2013-4-12,32.0,27.7,25.0,25.0,23.7,21.0,95,85,67,0.00,40.00,14,10,18,0.05
2013-4-13,36.0,27.9,21.0,25.0,19.6,16.0,93,73,51,0.00,40.00,15,4,17,0.01
2013-4-14,41.0,28.1,13.0,30.0,20.0,10.0,97,75,39,0.00,40.00,22,10,35,0.02
2013-4-15,41.0,34.2,30.0,32.0,30.3,27.0,97,86,58,0.00,40.00,19,7,29,0.02
2013-4-16,39.0,33.7,29.0,32.0,25.8,21.0,94,73,49,0.00,40.00,13,6,18,0.00
2013-4-17,36.0,33.3,31.0,32.0,29.4,27.0,95,85,74,0.00,40.00,9,4,11,0.01
2013-4-18,34.0,30.9,29.0,30.0,28.2,27.0,96,91,72,0.00,40.00,23,15,28,0.03
2013-4-19,33.0,29.1,24.0,28.0,17.0,3.0,93,63,31,0.00,40.00,28,19,34,0.03
2013-4-20,40.0,27.7,13.0,18.0,11.3,1.0,85,53,23,0.00,40.00,11,4,14,0.00
2013-4-21,37.0,31.9,22.0,34.0,26.1,12.0,96,79,59,0.00,40.00,23,11,30,0.03
2013-4-22,36.0,31.7,27.0,27.0,22.6,18.0,89,70,51,0.00,40.00,14,9,20,0.01
2013-4-23,38.0,30.2,22.0,19.0,16.0,12.0,74,56,38,0.00,40.00,14,8,21,0.00
2013-4-24,42.0,31.5,18.0,30.0,22.5,14.0,87,71,42,0.00,40.00,11,5,16,0.00
2013-4-25,44.0,35.7,29.0,28.0,25.8,19.0,90,68,36,0.00,40.00,12,7,18,0.00
2013-4-26,65.0,45.4,30.0,34.0,28.9,25.0,82,56,23,0.00,40.00,11,4,12,0.00
2013-4-27,68.0,48.4,33.0,34.0,30.4,27.0,83,54,21,0.00,40.00,21,11,27,0.00
2013-4-28,64.0,51.7,41.0,45.0,37.9,30.0,76,59,41,0.00,40.00,19,8,24,0.00
2013-4-29,63.0,46.0,28.0,34.0,27.3,16.0,92,53,18,0.00,40.00,8,3,12,0.00
2013-4-30,63.0,50.5,39.0,52.0,36.6,25.0,97,62,28,0.00,40.00,23,11,38,0.00
2013-5-1,39.0,33.7,29.0,28.0,21.6,18.0,73,61,51,0.00,40.00,18,11,27,0.00
2013-5-2,35.0,30.8,26.0,25.0,22.2,19.0,81,71,56,0.00,40.00,16,9,20,0.00
2013-5-3,42.0,33.8,25.0,28.0,23.4,19.0,82,66,46,0.00,40.00,14,10,19,0.00
2013-5-4,36.0,34.7,33.0,36.0,32.4,27.0,96,91,69,0.00,40.00,12,9,16,0.00
2013-5-5,49.0,39.1,34.0,41.0,36.5,34.0,98,90,73,0.00,40.00,7,4,7,0.00
2013-5-6,54.0,38.5,30.0,43.0,35.3,30.0,97,89,63,0.00,40.00,6,2,7,0.00
2013-11-20,45.0,45.0,45.0,30.0,30.0,30.0,56,56,56,0.00,40.00,9,9,11,0.00
2013-12-3,29.0,29.0,29.0,28.0,28.0,28.0,95,95,95,0.00,40.00,13,13,16,0.00